EGSY

Sheffield City Heliport

Airport
ICAO code
EGSY
Summary
ICAO Region
EUR
ICAO Territory
Location

, England

Serving
Fowlmere
Elevation
231 ft
Coordinates
53° 23' 39" N , 1° 23' 19" W
Metar
EGSY 271020Z 24007KT 9999 FEW024 07/04 Q1021

Runways

Designator Length Width Surface Rops
10/28 1211 30 ASP No/No

Airport map

Aerial View

SKYbrary Partners:

Safety knowledge contributed by: